createdAt,value
2018-11-04T00:01:34.629Z,84.34
2018-11-04T00:04:03.760Z,84.42
2018-11-04T00:06:33.321Z,84.45
2018-11-04T00:09:02.483Z,84.26
2018-11-04T00:11:31.621Z,84.26
2018-11-04T00:14:00.809Z,84.72
2018-11-04T00:16:29.969Z,84.71
2018-11-04T00:18:59.160Z,84.66
2018-11-04T00:21:28.705Z,84.41
2018-11-04T00:23:57.908Z,84.12
2018-11-04T00:26:27.033Z,84.43
2018-11-04T00:28:56.181Z,84.12
2018-11-04T00:31:25.427Z,84.03
2018-11-04T00:33:54.557Z,84.79
2018-11-04T00:36:23.860Z,84.30
2018-11-04T00:38:53.035Z,84.38
2018-11-04T00:41:22.182Z,84.56
2018-11-04T00:43:51.385Z,84.15
2018-11-04T00:46:20.533Z,84.07
2018-11-04T00:48:49.695Z,84.13
2018-11-04T00:51:19.177Z,84.02
2018-11-04T00:53:48.334Z,83.81
2018-11-04T00:56:17.510Z,83.94
2018-11-04T00:58:46.672Z,83.74
2018-11-04T01:01:15.821Z,83.94
2018-11-04T01:03:44.993Z,83.99
2018-11-04T01:06:14.210Z,84.24
2018-11-04T01:08:43.380Z,83.96
2018-11-04T01:11:12.551Z,83.63
2018-11-04T01:13:41.673Z,84.03
2018-11-04T01:16:11.137Z,83.81
2018-11-04T01:18:40.298Z,84.08
2018-11-04T01:21:09.503Z,84.48
2018-11-04T01:23:38.610Z,83.54
2018-11-04T01:26:07.817Z,83.96
2018-11-04T01:28:37.008Z,84.21
2018-11-04T01:31:06.186Z,83.97
2018-11-04T01:33:42.028Z,84.04
2018-11-04T01:36:11.201Z,83.77
2018-11-04T01:38:40.369Z,83.65
2018-11-04T01:41:09.505Z,83.76
2018-11-04T01:43:38.691Z,83.76
2018-11-04T01:46:07.866Z,83.88
2018-11-04T01:48:37.026Z,83.73
2018-11-04T01:51:06.785Z,83.54
2018-11-04T01:53:35.913Z,83.32
2018-11-04T01:56:05.092Z,83.63
2018-11-04T01:58:34.249Z,83.33
2018-11-04T02:01:03.421Z,83.01
2018-11-04T02:03:32.601Z,83.46
2018-11-04T02:06:01.742Z,83.84
2018-11-04T02:08:30.992Z,83.73
2018-11-04T02:11:00.237Z,83.52
2018-11-04T02:13:29.417Z,83.91
2018-11-04T02:15:58.582Z,83.15
2018-11-04T02:18:27.841Z,83.70
2018-11-04T02:20:56.995Z,83.55
2018-11-04T02:23:26.205Z,83.62
2018-11-04T02:25:55.657Z,83.66
2018-11-04T02:28:24.832Z,83.12
2018-11-04T02:30:54.005Z,82.65
2018-11-04T02:33:23.278Z,83.00
2018-11-04T02:35:52.452Z,83.52
2018-11-04T02:38:21.830Z,84.01
2018-11-04T02:40:51.028Z,83.95
2018-11-04T02:43:20.181Z,84.11
2018-11-04T02:45:49.354Z,84.26
2018-11-04T02:48:18.554Z,84.30
2018-11-04T02:50:47.736Z,84.29
2018-11-04T02:53:17.261Z,84.41
2018-11-04T02:55:46.441Z,83.98
2018-11-04T02:58:15.617Z,83.09
2018-11-04T03:00:45.174Z,83.82
2018-11-04T03:03:14.349Z,84.17
2018-11-04T03:05:43.558Z,84.18
2018-11-04T03:08:12.724Z,84.00
2018-11-04T03:10:41.861Z,83.96
2018-11-04T03:13:11.065Z,83.94
2018-11-04T03:15:40.217Z,83.57
2018-11-04T03:18:09.421Z,83.98
2018-11-04T03:20:38.665Z,84.12
2018-11-04T03:23:08.212Z,84.23
2018-11-04T03:25:37.739Z,84.46
2018-11-04T03:28:08.073Z,84.48
2018-11-04T03:30:37.561Z,84.57
2018-11-04T03:33:07.537Z,84.13
2018-11-04T03:35:36.725Z,84.05
2018-11-04T03:38:06.150Z,84.01
2018-11-04T03:40:35.328Z,83.79
2018-11-04T03:43:04.712Z,84.01
2018-11-04T03:45:34.052Z,84.16
2018-11-04T03:48:03.193Z,84.71
2018-11-04T03:50:32.402Z,84.20
2018-11-04T03:53:06.761Z,84.40
2018-11-04T03:55:37.136Z,84.00
2018-11-04T03:58:06.485Z,83.97
2018-11-04T04:00:35.682Z,84.35
2018-11-04T04:03:05.221Z,84.17
2018-11-04T04:05:34.389Z,84.61
2018-11-04T04:08:03.555Z,83.83
2018-11-04T04:10:32.732Z,83.87
2018-11-04T04:13:01.891Z,84.22
2018-11-04T04:15:31.085Z,83.62
2018-11-04T04:18:00.281Z,83.89
2018-11-04T04:20:29.450Z,83.80
2018-11-04T04:22:58.719Z,83.49
2018-11-04T04:25:27.912Z,83.74
2018-11-04T04:27:57.101Z,84.11
2018-11-04T04:30:26.261Z,83.75
2018-11-04T04:32:55.421Z,83.55
2018-11-04T04:35:24.721Z,83.68
2018-11-04T04:37:53.927Z,83.51
2018-11-04T04:40:23.347Z,83.83
2018-11-04T04:42:52.504Z,84.00
2018-11-04T04:45:28.476Z,84.17
2018-11-04T04:47:57.640Z,84.02
2018-11-04T04:50:26.813Z,83.96
2018-11-04T04:52:55.985Z,84.17
2018-11-04T04:55:25.137Z,83.56
2018-11-04T04:57:54.317Z,83.47
2018-11-04T05:00:23.469Z,82.54
2018-11-04T05:02:52.645Z,83.11
2018-11-04T05:05:21.817Z,82.05
2018-11-04T05:07:51.004Z,82.39
2018-11-04T05:10:20.547Z,82.73
2018-11-04T05:12:49.807Z,83.65
2018-11-04T05:15:18.985Z,83.36
2018-11-04T05:17:48.492Z,82.84
2018-11-04T05:20:17.697Z,82.30
2018-11-04T05:22:46.849Z,82.15
2018-11-04T05:25:16.045Z,82.33
2018-11-04T05:27:45.225Z,82.11
2018-11-04T05:30:14.372Z,82.39
2018-11-04T05:32:43.529Z,82.49
2018-11-04T05:35:12.703Z,82.53
2018-11-04T05:37:41.852Z,82.16
2018-11-04T05:40:11.002Z,82.53
2018-11-04T05:42:40.133Z,82.35
2018-11-04T05:45:09.484Z,82.71
2018-11-04T05:47:38.641Z,82.67
2018-11-04T05:50:07.810Z,82.57
2018-11-04T05:52:37.482Z,82.57
2018-11-04T05:55:07.918Z,82.66
2018-11-04T05:57:37.214Z,82.93
2018-11-04T06:00:08.314Z,82.44
2018-11-04T06:02:37.490Z,82.27
2018-11-04T06:05:07.997Z,82.32
2018-11-04T06:07:37.156Z,82.63
2018-11-04T06:10:07.125Z,83.02
2018-11-04T06:12:36.637Z,82.98
2018-11-04T06:15:07.257Z,82.65
2018-11-04T06:17:36.419Z,82.01
2018-11-04T06:20:07.179Z,82.49
2018-11-04T06:22:36.321Z,82.37
2018-11-04T06:25:06.341Z,82.66
2018-11-04T06:27:35.484Z,82.60
2018-11-04T06:30:06.411Z,82.02
2018-11-04T06:32:35.597Z,82.11
2018-11-04T06:35:05.420Z,82.48
2018-11-04T06:37:34.573Z,82.71
2018-11-04T06:40:03.747Z,82.62
2018-11-04T06:42:32.900Z,82.18
2018-11-04T06:45:02.090Z,82.64
2018-11-04T06:47:31.555Z,83.12
2018-11-04T06:50:00.686Z,82.59
2018-11-04T06:52:29.814Z,82.99
2018-11-04T06:54:58.973Z,82.50
2018-11-04T06:57:28.110Z,82.83
2018-11-04T06:59:57.347Z,82.88
2018-11-04T07:02:26.429Z,83.07
2018-11-04T07:04:55.585Z,83.01
2018-11-04T07:07:25.105Z,82.69
2018-11-04T07:09:54.253Z,82.67
2018-11-04T07:12:23.457Z,82.74
2018-11-04T07:14:52.662Z,82.61
2018-11-04T07:17:21.849Z,82.22
2018-11-04T07:19:51.057Z,82.74
2018-11-04T07:22:20.281Z,82.53
2018-11-04T07:24:50.327Z,82.88
2018-11-04T07:27:19.507Z,81.99
2018-11-04T07:29:48.667Z,82.28
2018-11-04T07:32:17.860Z,82.80
2018-11-04T07:34:47.112Z,82.83
2018-11-04T07:37:16.309Z,82.75
2018-11-04T07:39:45.520Z,82.97
2018-11-04T07:42:14.782Z,82.59
2018-11-04T07:44:43.972Z,82.78
2018-11-04T07:47:13.176Z,83.08
2018-11-04T07:49:42.357Z,82.61
2018-11-04T07:52:11.569Z,82.94
2018-11-04T07:54:40.795Z,82.86
2018-11-04T07:57:09.958Z,82.69
2018-11-04T07:59:39.195Z,82.84
2018-11-04T08:02:08.407Z,82.10
2018-11-04T08:04:37.580Z,81.87
2018-11-04T08:07:06.733Z,82.50
2018-11-04T08:09:36.273Z,82.55
2018-11-04T08:12:05.660Z,82.46
2018-11-04T08:14:34.814Z,82.49
2018-11-04T08:17:03.956Z,82.87
2018-11-04T08:19:33.191Z,82.97
2018-11-04T08:22:02.334Z,82.86
2018-11-04T08:24:31.557Z,83.51
2018-11-04T08:27:00.709Z,83.50
2018-11-04T08:29:29.909Z,83.18
2018-11-04T08:31:59.056Z,83.58
2018-11-04T08:34:28.262Z,83.27
2018-11-04T08:36:57.417Z,83.87
2018-11-04T08:39:26.584Z,83.90
2018-11-04T08:41:55.738Z,83.05
2018-11-04T08:44:24.941Z,83.60
2018-11-04T08:46:54.078Z,83.01
2018-11-04T08:49:23.258Z,82.59
2018-11-04T08:51:52.407Z,82.37
2018-11-04T08:54:21.546Z,82.66
2018-11-04T08:56:50.725Z,82.50
2018-11-04T08:59:19.969Z,82.62
2018-11-04T09:01:49.640Z,83.02
2018-11-04T09:04:18.789Z,83.30
2018-11-04T09:06:47.946Z,83.56
2018-11-04T09:09:17.110Z,83.85
2018-11-04T09:11:46.261Z,83.92
2018-11-04T09:14:15.548Z,83.71
2018-11-04T09:16:44.657Z,83.33
2018-11-04T09:19:13.818Z,84.03
2018-11-04T09:21:43.082Z,83.57
2018-11-04T09:24:12.310Z,83.66
2018-11-04T09:26:41.477Z,83.76
2018-11-04T09:29:10.679Z,83.71
2018-11-04T09:31:40.325Z,83.00
2018-11-04T09:34:09.499Z,83.72
2018-11-04T09:36:38.773Z,83.80
2018-11-04T09:39:10.148Z,83.39
2018-11-04T09:41:39.318Z,83.34
2018-11-04T09:44:08.554Z,82.99
2018-11-04T09:46:37.813Z,82.53
2018-11-04T09:49:06.998Z,82.48
2018-11-04T09:51:36.158Z,82.31
2018-11-04T09:54:06.156Z,82.46
2018-11-04T09:56:35.343Z,81.90
2018-11-04T09:59:04.433Z,81.91
2018-11-04T10:01:33.672Z,81.56
2018-11-04T10:04:02.845Z,82.15
2018-11-04T10:06:32.041Z,81.86
2018-11-04T10:09:01.250Z,81.96
2018-11-04T10:11:30.442Z,81.90
2018-11-04T10:13:59.648Z,82.40
2018-11-04T10:16:28.805Z,82.65
2018-11-04T10:18:58.107Z,81.82
2018-11-04T10:21:27.152Z,82.23
2018-11-04T10:23:56.334Z,82.44
2018-11-04T10:26:25.533Z,81.73
2018-11-04T10:28:54.718Z,82.17
2018-11-04T10:31:23.940Z,82.59
2018-11-04T10:33:53.101Z,81.89
2018-11-04T10:36:22.291Z,81.78
2018-11-04T10:38:51.453Z,82.33
2018-11-04T10:41:20.613Z,82.09
2018-11-04T10:43:49.772Z,81.83
2018-11-04T10:46:18.913Z,82.04
2018-11-04T10:48:48.152Z,81.62
2018-11-04T10:51:17.317Z,81.56
2018-11-04T10:53:46.498Z,81.75
2018-11-04T10:56:15.661Z,81.68
2018-11-04T10:58:44.842Z,81.74
2018-11-04T11:01:14.002Z,81.95
2018-11-04T11:03:43.329Z,81.78
2018-11-04T11:06:12.509Z,80.99
2018-11-04T11:08:41.929Z,80.83
2018-11-04T11:11:11.219Z,81.44
2018-11-04T11:13:40.574Z,81.10
2018-11-04T11:16:09.776Z,80.98
2018-11-04T11:18:38.932Z,81.09
2018-11-04T11:21:08.136Z,81.31
2018-11-04T11:23:37.293Z,80.93
2018-11-04T11:26:06.792Z,81.10
2018-11-04T11:28:36.064Z,80.84
2018-11-04T11:31:05.340Z,80.79
2018-11-04T11:33:34.505Z,80.58
2018-11-04T11:36:03.674Z,80.41
2018-11-04T11:38:32.905Z,80.51
2018-11-04T11:41:02.062Z,80.85
2018-11-04T11:43:31.262Z,80.57
2018-11-04T11:46:00.416Z,80.53
2018-11-04T11:48:29.589Z,80.91
2018-11-04T11:50:58.752Z,80.22
2018-11-04T11:53:27.990Z,80.42
2018-11-04T11:55:57.141Z,81.04
2018-11-04T11:58:26.293Z,80.36
2018-11-04T12:00:55.453Z,80.87
2018-11-04T12:03:24.673Z,80.35
2018-11-04T12:05:53.841Z,80.88
2018-11-04T12:08:22.985Z,80.47
2018-11-04T12:10:52.141Z,81.42
2018-11-04T12:13:21.350Z,81.34
2018-11-04T12:15:50.561Z,80.79
2018-11-04T12:18:19.830Z,80.79
2018-11-04T12:20:49.023Z,80.39
2018-11-04T12:23:18.237Z,80.79
2018-11-04T12:25:47.442Z,80.98
2018-11-04T12:28:16.705Z,80.71
2018-11-04T12:30:45.903Z,81.24
2018-11-04T12:33:15.078Z,82.12
2018-11-04T12:35:44.261Z,80.94
2018-11-04T12:38:13.425Z,82.09
2018-11-04T12:40:42.640Z,81.13
2018-11-04T12:43:11.888Z,81.13
2018-11-04T12:45:41.189Z,81.42
2018-11-04T12:48:10.293Z,81.52
2018-11-04T12:50:39.470Z,82.18
2018-11-04T12:53:08.609Z,82.49
2018-11-04T12:55:37.802Z,81.46
2018-11-04T12:58:07.073Z,81.61
2018-11-04T13:00:36.265Z,81.98
2018-11-04T13:03:06.674Z,82.18
2018-11-04T13:05:35.841Z,82.17
2018-11-04T13:08:05.216Z,82.03
2018-11-04T13:10:34.425Z,82.02
2018-11-04T13:13:03.700Z,81.54
2018-11-04T13:15:33.124Z,81.98
2018-11-04T13:18:02.592Z,81.37
2018-11-04T13:20:31.749Z,82.10
2018-11-04T13:23:00.943Z,82.14
2018-11-04T13:25:30.119Z,82.03
2018-11-04T13:27:59.332Z,82.28
2018-11-04T13:30:28.516Z,81.47
2018-11-04T13:32:57.721Z,82.01
2018-11-04T13:35:26.902Z,82.24
2018-11-04T13:37:56.135Z,81.75
2018-11-04T13:40:25.385Z,80.64
2018-11-04T13:42:54.620Z,81.31
2018-11-04T13:45:23.819Z,81.96
2018-11-04T13:47:53.041Z,81.66
2018-11-04T13:50:22.259Z,81.78
2018-11-04T13:52:51.452Z,82.34
2018-11-04T13:55:20.645Z,81.66
2018-11-04T13:57:49.886Z,81.62
2018-11-04T14:00:19.090Z,82.12
2018-11-04T14:02:49.506Z,81.77
2018-11-04T14:05:18.686Z,81.41
2018-11-04T14:07:47.942Z,82.04
2018-11-04T14:10:17.521Z,82.72
2018-11-04T14:12:47.085Z,82.76
2018-11-04T14:15:16.331Z,82.58
2018-11-04T14:17:45.671Z,83.28
2018-11-04T14:20:14.900Z,83.59
2018-11-04T14:22:44.109Z,83.20
2018-11-04T14:25:13.565Z,82.81
2018-11-04T14:27:42.725Z,82.06
2018-11-04T14:30:14.031Z,82.63
2018-11-04T14:32:43.577Z,81.89
2018-11-04T14:35:13.184Z,82.44
2018-11-04T14:37:43.081Z,82.36
2018-11-04T14:40:13.962Z,82.51
2018-11-04T14:42:44.186Z,82.39
2018-11-04T14:45:13.382Z,82.40
2018-11-04T14:47:42.585Z,82.57
2018-11-04T14:50:15.441Z,82.04
2018-11-04T14:52:44.680Z,82.61
2018-11-04T14:55:13.845Z,82.47
2018-11-04T14:57:43.080Z,83.02
2018-11-04T15:00:14.189Z,81.95
2018-11-04T15:02:43.370Z,83.09
2018-11-04T15:05:12.688Z,82.93
2018-11-04T15:07:41.885Z,83.49
2018-11-04T15:10:13.314Z,83.48
2018-11-04T15:12:42.539Z,83.46
2018-11-04T15:15:14.181Z,83.78
2018-11-04T15:17:43.408Z,83.92
2018-11-04T15:20:13.004Z,84.22
2018-11-04T15:22:45.576Z,84.10
2018-11-04T15:25:15.789Z,84.07
2018-11-04T15:27:45.123Z,84.30
2018-11-04T15:30:14.313Z,83.53
2018-11-04T15:32:43.810Z,84.13
2018-11-04T15:35:14.113Z,83.69
2018-11-04T15:37:43.329Z,84.20
2018-11-04T15:40:14.120Z,84.18
2018-11-04T15:42:43.368Z,84.79
2018-11-04T15:45:13.745Z,84.36
2018-11-04T15:47:43.006Z,84.92
2018-11-04T15:50:17.059Z,84.31
2018-11-04T15:52:46.695Z,84.34
2018-11-04T15:55:15.909Z,84.71
2018-11-04T15:57:45.173Z,84.37
2018-11-04T16:00:15.369Z,84.73
2018-11-04T16:02:44.619Z,85.25
2018-11-04T16:05:13.867Z,85.38
2018-11-04T16:07:42.977Z,84.44
2018-11-04T16:10:12.795Z,84.55
2018-11-04T16:12:41.968Z,84.46
2018-11-04T16:15:13.413Z,85.04
2018-11-04T16:17:43.119Z,84.65
2018-11-04T16:20:13.718Z,84.96
2018-11-04T16:22:43.588Z,85.50
2018-11-04T16:25:13.241Z,86.36
2018-11-04T16:27:42.947Z,86.00
2018-11-04T16:30:13.529Z,86.18
2018-11-04T16:32:42.731Z,85.38
2018-11-04T16:35:12.890Z,85.08
2018-11-04T16:37:43.068Z,85.24
2018-11-04T16:40:12.230Z,85.32
2018-11-04T16:42:41.485Z,84.98
2018-11-04T16:45:13.668Z,85.25
2018-11-04T16:47:42.848Z,85.45
2018-11-04T16:50:13.078Z,85.69
2018-11-04T16:52:42.885Z,85.59
2018-11-04T16:55:12.597Z,85.70
2018-11-04T16:57:42.180Z,85.92
2018-11-04T17:00:12.006Z,85.73
2018-11-04T17:02:41.186Z,85.34
2018-11-04T17:05:11.496Z,85.77
2018-11-04T17:07:40.955Z,85.96
2018-11-04T17:10:10.553Z,85.89
2018-11-04T17:12:39.793Z,86.16
2018-11-04T17:15:12.068Z,85.59
2018-11-04T17:17:41.250Z,86.18
2018-11-04T17:20:13.236Z,85.61
2018-11-04T17:22:43.005Z,85.37
2018-11-04T17:25:12.786Z,86.00
2018-11-04T17:27:42.622Z,86.27
2018-11-04T17:30:14.605Z,86.41
2018-11-04T17:32:44.013Z,86.62
2018-11-04T17:35:14.228Z,86.86
2018-11-04T17:37:43.766Z,86.91
2018-11-04T17:40:13.720Z,86.32
2018-11-04T17:42:42.955Z,87.21
2018-11-04T17:45:13.452Z,87.69
2018-11-04T17:47:42.746Z,87.29
2018-11-04T17:50:16.037Z,87.32
2018-11-04T17:52:45.433Z,87.23
2018-11-04T17:55:14.956Z,87.53
2018-11-04T17:57:44.433Z,87.27
2018-11-04T18:00:14.749Z,87.52
2018-11-04T18:02:44.176Z,86.81
2018-11-04T18:05:13.945Z,86.93
2018-11-04T18:07:43.810Z,86.43
2018-11-04T18:10:13.800Z,86.29
2018-11-04T18:12:43.208Z,87.08
2018-11-04T18:15:13.317Z,87.13
2018-11-04T18:17:42.470Z,87.16
2018-11-04T18:20:12.238Z,87.33
2018-11-04T18:22:41.398Z,87.76
2018-11-04T18:25:11.595Z,88.25
2018-11-04T18:27:40.811Z,88.11
2018-11-04T18:30:13.721Z,88.38
2018-11-04T18:32:43.687Z,88.20
2018-11-04T18:35:12.855Z,87.83
2018-11-04T18:37:42.289Z,87.97
2018-11-04T18:40:13.481Z,88.63
2018-11-04T18:42:43.138Z,88.16
2018-11-04T18:45:13.422Z,87.89
2018-11-04T18:47:42.661Z,88.31
2018-11-04T18:50:12.791Z,88.07
2018-11-04T18:52:42.194Z,88.21
2018-11-04T18:55:12.353Z,87.98
2018-11-04T18:57:42.835Z,88.19
2018-11-04T19:00:14.486Z,88.07
2018-11-04T19:02:44.030Z,87.93
2018-11-04T19:05:13.231Z,87.80
2018-11-04T19:07:42.489Z,88.30
2018-11-04T19:10:13.398Z,87.85
2018-11-04T19:12:43.014Z,87.81
2018-11-04T19:15:12.227Z,88.25
2018-11-04T19:17:41.412Z,88.19
2018-11-04T19:20:12.546Z,88.05
2018-11-04T19:22:41.773Z,87.75
2018-11-04T19:25:12.029Z,88.43
2018-11-04T19:27:41.480Z,88.19
2018-11-04T19:30:13.027Z,88.00
2018-11-04T19:32:42.438Z,87.94
2018-11-04T19:35:12.473Z,88.07
2018-11-04T19:37:42.096Z,88.34
2018-11-04T19:40:12.486Z,88.58
2018-11-04T19:42:41.832Z,88.68
2018-11-04T19:45:10.895Z,88.32
2018-11-04T19:47:40.367Z,88.31
2018-11-04T19:50:11.573Z,88.23
2018-11-04T19:52:41.148Z,88.36
2018-11-04T19:55:11.024Z,88.78
2018-11-04T19:57:40.251Z,88.12
2018-11-04T20:00:11.269Z,88.33
2018-11-04T20:02:40.402Z,88.13
2018-11-04T20:05:10.945Z,88.74
2018-11-04T20:07:40.157Z,88.91
2018-11-04T20:10:12.744Z,89.61
2018-11-04T20:12:47.289Z,89.44
2018-11-04T20:15:16.588Z,89.02
2018-11-04T20:17:47.132Z,88.93
2018-11-04T20:20:18.282Z,88.78
2018-11-04T20:22:47.321Z,88.80
2018-11-04T20:25:21.656Z,88.90
2018-11-04T20:27:50.857Z,88.94
2018-11-04T20:30:20.050Z,88.91
2018-11-04T20:32:54.565Z,89.56
2018-11-04T20:35:23.739Z,89.65
2018-11-04T20:37:52.893Z,89.10
2018-11-04T20:40:27.415Z,88.96
2018-11-04T20:42:56.581Z,89.14
2018-11-04T20:45:25.733Z,88.73
2018-11-04T20:48:00.390Z,88.42
2018-11-04T20:50:34.754Z,88.86
2018-11-04T20:53:03.905Z,88.96
2018-11-04T20:55:38.501Z,89.21
2018-11-04T20:58:07.682Z,89.06
2018-11-04T21:00:36.898Z,89.16
2018-11-04T21:03:06.086Z,88.89
2018-11-04T21:05:35.266Z,88.66
2018-11-04T21:08:04.460Z,89.16
2018-11-04T21:10:33.873Z,88.78
2018-11-04T21:13:03.169Z,88.85
2018-11-04T21:15:32.493Z,88.27
2018-11-04T21:18:01.667Z,89.05
2018-11-04T21:20:30.838Z,89.29
2018-11-04T21:22:59.997Z,88.72
2018-11-04T21:25:29.239Z,88.69
2018-11-04T21:27:58.395Z,88.96
2018-11-04T21:30:27.550Z,88.87
2018-11-04T21:32:56.713Z,88.66
2018-11-04T21:35:25.925Z,88.05
2018-11-04T21:37:55.169Z,89.02
2018-11-04T21:40:24.262Z,88.90
2018-11-04T21:42:53.469Z,88.89
2018-11-04T21:45:22.596Z,88.81
2018-11-04T21:47:51.879Z,88.50
2018-11-04T21:50:21.043Z,88.33
2018-11-04T21:52:50.201Z,88.58
2018-11-04T21:55:19.432Z,88.30
2018-11-04T21:57:48.560Z,88.03
2018-11-04T22:00:18.144Z,88.18
2018-11-04T22:02:47.482Z,87.93
2018-11-04T22:05:16.428Z,88.15
2018-11-04T22:07:45.602Z,88.40
2018-11-04T22:10:15.823Z,88.44
2018-11-04T22:12:45.016Z,88.00
2018-11-04T22:15:14.156Z,88.23
2018-11-04T22:17:43.300Z,88.11
2018-11-04T22:20:13.236Z,88.53
2018-11-04T22:22:42.413Z,88.41
2018-11-04T22:25:11.917Z,88.35
2018-11-04T22:27:41.061Z,88.67
2018-11-04T22:30:11.664Z,88.38
2018-11-04T22:32:40.840Z,88.11
2018-11-04T22:35:11.492Z,88.08
2018-11-04T22:37:40.785Z,88.71
2018-11-04T22:40:11.734Z,89.21
2018-11-04T22:42:41.833Z,89.47
2018-11-04T22:45:12.099Z,89.00
2018-11-04T22:47:42.305Z,88.78
2018-11-04T22:50:13.589Z,88.63
2018-11-04T22:52:43.265Z,88.85
2018-11-04T22:55:13.458Z,88.68
2018-11-04T22:57:43.185Z,88.55
2018-11-04T23:00:18.173Z,88.85
2018-11-04T23:02:48.560Z,88.70
2018-11-04T23:05:22.876Z,88.65
2018-11-04T23:07:52.311Z,88.31
2018-11-04T23:10:21.460Z,88.37
2018-11-04T23:12:50.713Z,88.94
2018-11-04T23:15:19.929Z,88.35
2018-11-04T23:17:49.117Z,88.31
2018-11-04T23:20:18.330Z,88.32
2018-11-04T23:22:47.517Z,88.83
2018-11-04T23:25:16.802Z,88.42
2018-11-04T23:27:45.975Z,88.62
2018-11-04T23:30:17.392Z,88.49
2018-11-04T23:32:47.217Z,87.96
2018-11-04T23:35:16.381Z,88.63
2018-11-04T23:37:45.810Z,88.38
2018-11-04T23:40:15.001Z,88.43
2018-11-04T23:42:44.133Z,88.76
2018-11-04T23:45:14.298Z,88.95
2018-11-04T23:47:43.917Z,88.83
2018-11-04T23:50:15.384Z,88.78
2018-11-04T23:52:44.833Z,89.60
2018-11-04T23:55:14.685Z,89.32
2018-11-04T23:57:43.976Z,88.92
